Aérodrome :
LOGIN :

S'inscrire | Disclaimer

   EN    FR    IT 

 










Légende :    VFR   VFR Marginal   IFR   IFR Intensif   IFR Très Intensif
Visi : 
Plafond : 
>= 8 km
>= 3000ft
5 à 8 km
1000 à 3000 ft
1500m à 5 km
500 à 1000 ft
800 à 1500m
200 à 500 ft
< 800m
< 200 ft
Symboles :   Orages  Brouillard  Fortes neiges  Fortes précipitations  Vent > 20 kt
SIGMETs :   Divers  Orages  Givrage  Turbulence  Onde Orograph.  Cendres Volcan.







- Altitude de l'aérodrome : 1910 ft
- Code IATA : RDZ
- Voir les cartes d'approche


LFCR - Rodez

DERNIER METAR :
  • 011700Z AUTO 22008KT 9999 BKN022 BKN027 BKN035 08/06 Q1016 TEMPO 3000 -DZRA BKN008

METARs EXPIRÉS :
  • 011630Z AUTO 22007KT 9999 SCT017 OVC038 08/07 Q1016 TEMPO 3000 -DZRA BKN008
  • 011600Z AUTO 23006KT 9999 OVC016 08/06 Q1016 TEMPO 3000 -DZRA BKN008
  • 011530Z AUTO 24009KT 200V270 9999 OVC014 07/06 Q1016 TEMPO 3000 -DZRA BKN008
  • 011500Z AUTO 23010KT 9999 -RA BKN013 OVC018 07/06 Q1016 TEMPO 3000 -DZRA BKN008
  • 011430Z AUTO 22008KT 9999 OVC010 06/06 Q1016 TEMPO 3000 -DZRA

TAF TAF LFCR
Valide du 01 à 18h jusqu'au 02 à 18h UTC


011700Z 0118/0218 25006KT 9999 BKN020
BECMG 0120/0122 CAVOK
BECMG 0201/0203 BKN020
BECMG 0203/0205 BKN010
TEMPO 0205/0211 3000 -DZRA BKN005
BECMG 0211/0213 BKN020
Pas de NOTAMs connus pour ce terrain.
1 SIGMET publié pour la FIR Bordeaux (LFBB) :
 
Turbulence forte
LFBB SIGMET 2 VALID 011600/012000 LFPW
LFBB BORDEAUX FIR/UIR SEV TURB OBS WI N4530 W00145 - N4630 W00130 - N4630 W00015 - N4715 W00015 - N4630 E00100 SFC/FL040 STNR NC=



MET'MAP, la Météo Aéronautique d'un coup d'oeil ! - Copyright ORBIFLY Décembre 2007 - Disclaimer

ORBIFLY MET'MAP TEAM :

Programmation & Développement : Alexandra Zaïnal
Conception & Développement : Baudouin d'Aumeries
Co-Programmation & Développement : Marc-Olivier Méhu
Soutien technique & logistique : Manuel Goepfert

Contact : metmap@orbifly.com




SOURCES & CREDITS :

   NOAA